Terminal Aerodrome Forecast
Issued by NWS Spokane, WA

Home | Current Version | Previous Version | Text Only | Print | Product List | Glossary On
Versions: 1 2 3 4 5 6 7 8 9 10 11 12
000
FTUS46 KOTX 280521
TAFLWS
TAF
KLWS 280521Z 2806/2906 18004KT P6SM BKN200
     FM281100 VRB03KT P6SM SCT200
     FM281800 32009KT P6SM FEW200
     FM290400 21004KT P6SM FEW100 SCT200=

USA.gov is the U.S. government's official web portal to all federal, state and local government web resources and services.